メインページ
METAR-TAF:

METAR-TAF

空港 :

大館能代, 日本

大館能代空港

緯度: 40-11N, 経度: 140-12E, 海抜: 84m

現時点の気象観測

当レポートは39分前の23:09(UTC)に作成
の風 5kt
気温 -4°C
湿度 93%
気圧 1020 hPa
視程: 1500m
高度100ftの雲はほとんどない
高度800ftの雲は散在している
高度1000ftの千切れ雲あり
弱いにわか雪

METAR: RJSR 182309Z 18005KT 1500 R11/P2000N -SHSN FEW001 SCT008 BKN010 M04/M05 Q1020 RMK 1ST001 3ST008 7ST010 A3012

時間: 08:48 (23:48 UTC)


TAF: 見つかりません

4,000以上の空港の気象観測と天気予報(METAR報とTAF報)

利用可能な観測所は地図上に黄色い丸と赤い丸で示す。

丸の上にカーソルを重ねると観測所名を参照できる。

次にクリックすると気象観測と天気予報を参照できる。

マップの切り替え:黒色「×」印の緑ボタンをクリックして拡大、「-」印の緑ボタンをクリックして縮小、緑色の三角印をクリックして隣りの地図に切り替え


METAR-TAF: